sensor_id;sensor_type;location;lat;lon;timestamp;pressure;altitude;pressure_sealevel;temperature;humidity
141;BME280;65;48.778;9.160;2023-03-14T00:00:35;96929.97;;;9.76;100.00
141;BME280;65;48.778;9.160;2023-03-14T00:03:28;96932.72;;;9.74;100.00
141;BME280;65;48.778;9.160;2023-03-14T00:06:14;96903.00;;;9.72;100.00
141;BME280;65;48.778;9.160;2023-03-14T00:08:59;96940.88;;;9.71;100.00
141;BME280;65;48.778;9.160;2023-03-14T00:11:45;96928.66;;;9.70;100.00
141;BME280;65;48.778;9.160;2023-03-14T00:14:32;96931.06;;;9.73;100.00
141;BME280;65;48.778;9.160;2023-03-14T00:17:17;96922.19;;;9.74;100.00
141;BME280;65;48.778;9.160;2023-03-14T00:20:05;96902.75;;;9.75;100.00
141;BME280;65;48.778;9.160;2023-03-14T00:22:53;96908.03;;;9.75;100.00
141;BME280;65;48.778;9.160;2023-03-14T00:25:39;96895.41;;;9.79;100.00
141;BME280;65;48.778;9.160;2023-03-14T00:28:25;96886.66;;;9.78;100.00
141;BME280;65;48.778;9.160;2023-03-14T00:31:13;96885.25;;;9.74;100.00
141;BME280;65;48.778;9.160;2023-03-14T00:33:59;96893.28;;;9.73;100.00
141;BME280;65;48.778;9.160;2023-03-14T00:36:45;96899.41;;;9.73;100.00
141;BME280;65;48.778;9.160;2023-03-14T00:39:30;96913.53;;;9.72;100.00
141;BME280;65;48.778;9.160;2023-03-14T00:42:16;96916.19;;;9.83;100.00
141;BME280;65;48.778;9.160;2023-03-14T00:45:02;96909.19;;;9.94;100.00
141;BME280;65;48.778;9.160;2023-03-14T00:47:49;96902.72;;;9.98;100.00
141;BME280;65;48.778;9.160;2023-03-14T00:50:35;96892.88;;;10.00;100.00
141;BME280;65;48.778;9.160;2023-03-14T00:53:21;96905.91;;;10.12;100.00
141;BME280;65;48.778;9.160;2023-03-14T00:56:09;96910.59;;;10.09;100.00
141;BME280;65;48.778;9.160;2023-03-14T00:58:55;96908.44;;;10.03;100.00
141;BME280;65;48.778;9.160;2023-03-14T01:01:42;96916.84;;;10.08;100.00
141;BME280;65;48.778;9.160;2023-03-14T01:04:27;96920.44;;;10.07;100.00
141;BME280;65;48.778;9.160;2023-03-14T01:07:13;96929.06;;;10.09;100.00
141;BME280;65;48.778;9.160;2023-03-14T01:09:59;96933.50;;;10.08;100.00
141;BME280;65;48.778;9.160;2023-03-14T01:12:44;96937.31;;;10.15;100.00
141;BME280;65;48.778;9.160;2023-03-14T01:15:32;96935.91;;;10.11;100.00
141;BME280;65;48.778;9.160;2023-03-14T01:18:18;96927.88;;;10.02;100.00
141;BME280;65;48.778;9.160;2023-03-14T01:21:11;96922.88;;;9.99;100.00
141;BME280;65;48.778;9.160;2023-03-14T01:23:58;96920.59;;;9.94;100.00
141;BME280;65;48.778;9.160;2023-03-14T01:26:45;96893.97;;;9.97;100.00
141;BME280;65;48.778;9.160;2023-03-14T01:29:30;96879.00;;;9.87;100.00
141;BME280;65;48.778;9.160;2023-03-14T01:32:16;96870.97;;;9.88;100.00
141;BME280;65;48.778;9.160;2023-03-14T01:35:02;96873.81;;;9.96;100.00
141;BME280;65;48.778;9.160;2023-03-14T01:37:48;96866.59;;;9.98;100.00
141;BME280;65;48.778;9.160;2023-03-14T01:40:41;96865.69;;;9.88;100.00
141;BME280;65;48.778;9.160;2023-03-14T01:43:27;96848.06;;;9.77;100.00
141;BME280;65;48.778;9.160;2023-03-14T01:46:30;96839.88;;;9.80;100.00
141;BME280;65;48.778;9.160;2023-03-14T01:49:31;96809.81;;;9.83;100.00
141;BME280;65;48.778;9.160;2023-03-14T01:55:23;96828.44;;;10.02;100.00
141;BME280;65;48.778;9.160;2023-03-14T01:58:10;96818.59;;;10.04;100.00
141;BME280;65;48.778;9.160;2023-03-14T02:00:57;96824.69;;;10.05;100.00
141;BME280;65;48.778;9.160;2023-03-14T02:03:48;96816.13;;;9.92;100.00
141;BME280;65;48.778;9.160;2023-03-14T02:06:42;96830.47;;;9.99;100.00
141;BME280;65;48.778;9.160;2023-03-14T02:09:30;96820.44;;;9.93;100.00
141;BME280;65;48.778;9.160;2023-03-14T02:12:18;96822.56;;;9.99;100.00
141;BME280;65;48.778;9.160;2023-03-14T02:15:06;96831.91;;;10.03;100.00
141;BME280;65;48.778;9.160;2023-03-14T02:17:52;96823.47;;;9.88;100.00
141;BME280;65;48.778;9.160;2023-03-14T02:20:49;96832.66;;;9.94;100.00
141;BME280;65;48.778;9.160;2023-03-14T02:23:48;96822.88;;;9.85;100.00
141;BME280;65;48.778;9.160;2023-03-14T02:26:40;96811.81;;;9.91;100.00
141;BME280;65;48.778;9.160;2023-03-14T02:29:30;96800.28;;;9.92;100.00
141;BME280;65;48.778;9.160;2023-03-14T02:32:17;96792.38;;;9.92;100.00
141;BME280;65;48.778;9.160;2023-03-14T02:35:09;96793.91;;;9.94;100.00
141;BME280;65;48.778;9.160;2023-03-14T02:41:09;96795.09;;;10.01;100.00
141;BME280;65;48.778;9.160;2023-03-14T02:43:55;96798.81;;;9.99;100.00
141;BME280;65;48.778;9.160;2023-03-14T02:46:41;96787.22;;;9.90;100.00
141;BME280;65;48.778;9.160;2023-03-14T02:49:29;96761.44;;;9.82;100.00
141;BME280;65;48.778;9.160;2023-03-14T02:52:15;96773.09;;;9.80;100.00
141;BME280;65;48.778;9.160;2023-03-14T02:55:01;96756.56;;;9.78;100.00
141;BME280;65;48.778;9.160;2023-03-14T02:57:47;96754.75;;;9.78;100.00
141;BME280;65;48.778;9.160;2023-03-14T03:00:32;96753.44;;;9.84;100.00
141;BME280;65;48.778;9.160;2023-03-14T03:03:43;96740.25;;;9.84;100.00
141;BME280;65;48.778;9.160;2023-03-14T03:06:28;96730.69;;;9.72;100.00
141;BME280;65;48.778;9.160;2023-03-14T03:09:14;96738.09;;;9.78;100.00
141;BME280;65;48.778;9.160;2023-03-14T03:12:00;96730.44;;;9.96;100.00
141;BME280;65;48.778;9.160;2023-03-14T03:14:45;96714.94;;;10.02;100.00
141;BME280;65;48.778;9.160;2023-03-14T03:17:31;96704.91;;;9.96;100.00
141;BME280;65;48.778;9.160;2023-03-14T03:20:17;96698.47;;;9.89;100.00
141;BME280;65;48.778;9.160;2023-03-14T03:23:03;96696.72;;;9.99;100.00
141;BME280;65;48.778;9.160;2023-03-14T03:25:50;96698.78;;;9.96;100.00
141;BME280;65;48.778;9.160;2023-03-14T03:28:36;96702.38;;;9.95;100.00
141;BME280;65;48.778;9.160;2023-03-14T03:31:22;96700.97;;;9.91;100.00
141;BME280;65;48.778;9.160;2023-03-14T03:34:08;96698.66;;;9.97;100.00
141;BME280;65;48.778;9.160;2023-03-14T03:36:56;96684.09;;;10.03;100.00
141;BME280;65;48.778;9.160;2023-03-14T03:39:42;96680.63;;;10.02;100.00
141;BME280;65;48.778;9.160;2023-03-14T03:42:28;96682.13;;;9.95;100.00
141;BME280;65;48.778;9.160;2023-03-14T03:45:13;96683.53;;;9.99;100.00
141;BME280;65;48.778;9.160;2023-03-14T03:47:59;96666.19;;;10.06;100.00
141;BME280;65;48.778;9.160;2023-03-14T03:50:46;96671.34;;;10.08;100.00
141;BME280;65;48.778;9.160;2023-03-14T03:53:32;96661.44;;;10.00;100.00
141;BME280;65;48.778;9.160;2023-03-14T03:56:17;96663.63;;;9.95;99.45
141;BME280;65;48.778;9.160;2023-03-14T03:59:03;96672.41;;;9.96;97.80
141;BME280;65;48.778;9.160;2023-03-14T04:01:49;96675.16;;;9.94;99.58
141;BME280;65;48.778;9.160;2023-03-14T04:04:34;96676.25;;;9.92;98.84
141;BME280;65;48.778;9.160;2023-03-14T04:07:20;96666.53;;;9.92;96.03
141;BME280;65;48.778;9.160;2023-03-14T04:10:06;96661.66;;;9.88;96.25
141;BME280;65;48.778;9.160;2023-03-14T04:12:52;96660.56;;;9.90;96.01
141;BME280;65;48.778;9.160;2023-03-14T04:15:38;96653.75;;;9.88;95.54
141;BME280;65;48.778;9.160;2023-03-14T04:18:24;96658.53;;;9.82;96.44
141;BME280;65;48.778;9.160;2023-03-14T04:21:13;96654.75;;;9.75;96.85
141;BME280;65;48.778;9.160;2023-03-14T04:24:00;96659.50;;;9.81;96.68
141;BME280;65;48.778;9.160;2023-03-14T04:26:46;96657.13;;;9.78;96.94
141;BME280;65;48.778;9.160;2023-03-14T04:29:31;96656.78;;;9.83;95.66
141;BME280;65;48.778;9.160;2023-03-14T04:32:17;96658.09;;;9.77;95.68
141;BME280;65;48.778;9.160;2023-03-14T04:35:03;96651.41;;;9.73;97.45
141;BME280;65;48.778;9.160;2023-03-14T04:41:21;96642.53;;;9.74;95.64
141;BME280;65;48.778;9.160;2023-03-14T04:44:07;96643.81;;;9.59;95.36
141;BME280;65;48.778;9.160;2023-03-14T04:46:53;96645.56;;;9.70;94.27
141;BME280;65;48.778;9.160;2023-03-14T04:49:38;96643.03;;;9.68;95.01
141;BME280;65;48.778;9.160;2023-03-14T04:52:25;96626.31;;;9.58;96.22
141;BME280;65;48.778;9.160;2023-03-14T04:55:11;96636.88;;;9.58;96.19
141;BME280;65;48.778;9.160;2023-03-14T04:57:56;96630.91;;;9.56;96.29
141;BME280;65;48.778;9.160;2023-03-14T05:00:42;96623.25;;;9.53;96.78
141;BME280;65;48.778;9.160;2023-03-14T05:03:28;96617.53;;;9.48;97.33
141;BME280;65;48.778;9.160;2023-03-14T05:06:13;96623.75;;;9.47;96.41
141;BME280;65;48.778;9.160;2023-03-14T05:08:59;96617.38;;;9.49;95.41
141;BME280;65;48.778;9.160;2023-03-14T05:11:45;96615.59;;;9.50;95.40
141;BME280;65;48.778;9.160;2023-03-14T05:14:53;96610.44;;;9.48;96.03
141;BME280;65;48.778;9.160;2023-03-14T05:17:39;96613.22;;;9.47;96.06
141;BME280;65;48.778;9.160;2023-03-14T05:20:24;96622.41;;;9.52;94.11
141;BME280;65;48.778;9.160;2023-03-14T05:23:10;96616.38;;;9.41;96.42
141;BME280;65;48.778;9.160;2023-03-14T05:25:56;96614.81;;;9.38;96.86
141;BME280;65;48.778;9.160;2023-03-14T05:28:42;96618.41;;;9.37;96.05
141;BME280;65;48.778;9.160;2023-03-14T05:31:28;96621.69;;;9.30;96.35
141;BME280;65;48.778;9.160;2023-03-14T05:34:13;96619.53;;;9.24;97.94
141;BME280;65;48.778;9.160;2023-03-14T05:36:59;96615.00;;;9.26;97.05
141;BME280;65;48.778;9.160;2023-03-14T05:39:45;96589.59;;;9.45;95.21
141;BME280;65;48.778;9.160;2023-03-14T05:42:30;96588.19;;;9.41;96.44
141;BME280;65;48.778;9.160;2023-03-14T05:45:16;96588.13;;;9.32;96.35
141;BME280;65;48.778;9.160;2023-03-14T05:48:02;96575.94;;;9.19;97.26
141;BME280;65;48.778;9.160;2023-03-14T05:50:48;96593.53;;;9.30;96.10
141;BME280;65;48.778;9.160;2023-03-14T05:53:39;96580.47;;;9.29;96.22
141;BME280;65;48.778;9.160;2023-03-14T05:56:28;96584.97;;;9.38;96.14
141;BME280;65;48.778;9.160;2023-03-14T05:59:13;96590.25;;;9.38;95.60
141;BME280;65;48.778;9.160;2023-03-14T06:02:00;96591.81;;;9.40;95.82
141;BME280;65;48.778;9.160;2023-03-14T06:04:46;96587.34;;;9.41;96.16
141;BME280;65;48.778;9.160;2023-03-14T06:07:31;96587.81;;;9.46;94.44
141;BME280;65;48.778;9.160;2023-03-14T06:10:17;96589.75;;;9.44;94.83
141;BME280;65;48.778;9.160;2023-03-14T06:13:03;96592.69;;;9.50;94.46
141;BME280;65;48.778;9.160;2023-03-14T06:15:49;96586.78;;;9.37;94.18
141;BME280;65;48.778;9.160;2023-03-14T06:18:34;96591.34;;;9.35;95.99
141;BME280;65;48.778;9.160;2023-03-14T06:21:20;96595.81;;;9.24;97.24
141;BME280;65;48.778;9.160;2023-03-14T06:24:06;96590.31;;;9.27;94.59
141;BME280;65;48.778;9.160;2023-03-14T06:26:52;96590.06;;;9.30;93.80
141;BME280;65;48.778;9.160;2023-03-14T06:29:38;96595.28;;;9.41;93.56
141;BME280;65;48.778;9.160;2023-03-14T06:32:26;96599.84;;;9.39;94.53
141;BME280;65;48.778;9.160;2023-03-14T06:35:12;96594.25;;;9.32;95.58
141;BME280;65;48.778;9.160;2023-03-14T06:37:58;96594.44;;;9.40;95.94
141;BME280;65;48.778;9.160;2023-03-14T06:40:44;96589.75;;;9.44;95.10
141;BME280;65;48.778;9.160;2023-03-14T06:43:29;96588.69;;;9.56;93.76
141;BME280;65;48.778;9.160;2023-03-14T06:46:15;96586.50;;;9.61;94.54
141;BME280;65;48.778;9.160;2023-03-14T06:49:01;96587.47;;;9.60;95.86
141;BME280;65;48.778;9.160;2023-03-14T06:51:47;96581.88;;;9.54;92.99
141;BME280;65;48.778;9.160;2023-03-14T06:54:32;96582.16;;;9.50;94.50
141;BME280;65;48.778;9.160;2023-03-14T06:57:18;96581.41;;;9.69;91.57
141;BME280;65;48.778;9.160;2023-03-14T07:00:04;96588.75;;;9.87;90.72
141;BME280;65;48.778;9.160;2023-03-14T07:02:50;96583.00;;;10.12;90.97
141;BME280;65;48.778;9.160;2023-03-14T07:05:36;96578.81;;;10.40;88.14
141;BME280;65;48.778;9.160;2023-03-14T07:08:24;96585.97;;;10.59;88.66
141;BME280;65;48.778;9.160;2023-03-14T07:11:10;96589.31;;;10.90;83.10
141;BME280;65;48.778;9.160;2023-03-14T07:13:56;96600.22;;;11.06;80.61
141;BME280;65;48.778;9.160;2023-03-14T07:16:42;96599.94;;;10.99;80.10
141;BME280;65;48.778;9.160;2023-03-14T07:19:28;96589.03;;;10.83;83.38
141;BME280;65;48.778;9.160;2023-03-14T07:22:13;96599.31;;;10.76;83.00
141;BME280;65;48.778;9.160;2023-03-14T07:24:59;96595.44;;;10.90;81.93
141;BME280;65;48.778;9.160;2023-03-14T07:27:45;96603.50;;;10.89;83.26
141;BME280;65;48.778;9.160;2023-03-14T07:30:33;96603.53;;;10.98;81.46
141;BME280;65;48.778;9.160;2023-03-14T07:33:19;96610.50;;;11.19;80.20
141;BME280;65;48.778;9.160;2023-03-14T07:36:05;96600.63;;;11.30;78.32
141;BME280;65;48.778;9.160;2023-03-14T07:38:51;96609.94;;;11.34;78.67
141;BME280;65;48.778;9.160;2023-03-14T07:41:37;96617.84;;;11.44;79.58
141;BME280;65;48.778;9.160;2023-03-14T07:44:23;96611.88;;;11.61;78.59
141;BME280;65;48.778;9.160;2023-03-14T07:47:09;96615.88;;;11.85;77.79
141;BME280;65;48.778;9.160;2023-03-14T07:49:55;96610.47;;;12.14;74.97
141;BME280;65;48.778;9.160;2023-03-14T07:52:40;96608.28;;;12.09;75.98
141;BME280;65;48.778;9.160;2023-03-14T07:55:26;96605.19;;;12.14;75.36
141;BME280;65;48.778;9.160;2023-03-14T07:58:12;96604.78;;;12.18;74.95
141;BME280;65;48.778;9.160;2023-03-14T08:00:58;96617.94;;;12.00;74.66
141;BME280;65;48.778;9.160;2023-03-14T08:03:44;96604.56;;;11.92;72.95
141;BME280;65;48.778;9.160;2023-03-14T08:06:30;96604.59;;;11.83;76.02
141;BME280;65;48.778;9.160;2023-03-14T08:09:15;96597.34;;;11.85;76.06
141;BME280;65;48.778;9.160;2023-03-14T08:12:01;96597.28;;;12.04;72.98
141;BME280;65;48.778;9.160;2023-03-14T08:14:47;96606.00;;;12.24;74.44
141;BME280;65;48.778;9.160;2023-03-14T08:17:32;96606.50;;;12.37;72.11
141;BME280;65;48.778;9.160;2023-03-14T08:20:22;96607.38;;;12.55;73.14
141;BME280;65;48.778;9.160;2023-03-14T08:23:08;96601.16;;;12.74;69.74
141;BME280;65;48.778;9.160;2023-03-14T08:25:54;96599.66;;;12.89;68.47
141;BME280;65;48.778;9.160;2023-03-14T08:28:40;96592.63;;;12.98;70.27
141;BME280;65;48.778;9.160;2023-03-14T08:31:25;96586.63;;;13.14;68.71
141;BME280;65;48.778;9.160;2023-03-14T08:34:11;96595.22;;;13.43;64.36
141;BME280;65;48.778;9.160;2023-03-14T08:36:57;96583.63;;;13.70;64.01
141;BME280;65;48.778;9.160;2023-03-14T08:39:42;96581.66;;;13.98;64.41
141;BME280;65;48.778;9.160;2023-03-14T08:42:28;96600.47;;;14.39;62.33
141;BME280;65;48.778;9.160;2023-03-14T08:45:15;96586.66;;;14.01;62.25
141;BME280;65;48.778;9.160;2023-03-14T08:48:02;96601.53;;;13.68;60.95
141;BME280;65;48.778;9.160;2023-03-14T08:50:48;96596.59;;;13.29;61.57
141;BME280;65;48.778;9.160;2023-03-14T08:53:34;96599.19;;;13.12;62.45
141;BME280;65;48.778;9.160;2023-03-14T08:56:20;96611.56;;;13.03;64.44
141;BME280;65;48.778;9.160;2023-03-14T08:59:06;96618.56;;;13.40;62.62
141;BME280;65;48.778;9.160;2023-03-14T09:01:51;96626.63;;;14.94;58.02
141;BME280;65;48.778;9.160;2023-03-14T09:04:37;96622.72;;;14.38;58.98
141;BME280;65;48.778;9.160;2023-03-14T09:07:23;96632.97;;;13.99;60.30
141;BME280;65;48.778;9.160;2023-03-14T09:10:10;96639.84;;;13.66;62.87
141;BME280;65;48.778;9.160;2023-03-14T09:12:55;96645.03;;;13.49;63.71
141;BME280;65;48.778;9.160;2023-03-14T09:15:43;96650.78;;;14.06;62.27
141;BME280;65;48.778;9.160;2023-03-14T09:18:29;96664.03;;;14.32;61.50
141;BME280;65;48.778;9.160;2023-03-14T09:21:15;96678.84;;;14.35;64.62
141;BME280;65;48.778;9.160;2023-03-14T09:24:01;96665.69;;;13.81;65.11
141;BME280;65;48.778;9.160;2023-03-14T09:26:47;96670.78;;;13.92;66.11
141;BME280;65;48.778;9.160;2023-03-14T09:29:33;96662.19;;;14.24;64.39
141;BME280;65;48.778;9.160;2023-03-14T09:32:19;96656.44;;;14.63;61.76
141;BME280;65;48.778;9.160;2023-03-14T09:35:05;96662.94;;;14.69;62.50
141;BME280;65;48.778;9.160;2023-03-14T09:37:50;96674.16;;;14.03;63.09
141;BME280;65;48.778;9.160;2023-03-14T09:40:37;96693.91;;;13.29;68.05
141;BME280;65;48.778;9.160;2023-03-14T09:43:24;96700.06;;;13.02;70.05
141;BME280;65;48.778;9.160;2023-03-14T09:46:11;96691.28;;;13.02;68.42
141;BME280;65;48.778;9.160;2023-03-14T09:48:58;96682.13;;;13.14;69.57
141;BME280;65;48.778;9.160;2023-03-14T09:51:47;96685.25;;;13.27;68.37
141;BME280;65;48.778;9.160;2023-03-14T09:57:35;96681.72;;;13.72;65.95
141;BME280;65;48.778;9.160;2023-03-14T10:00:24;96672.72;;;14.08;63.55
141;BME280;65;48.778;9.160;2023-03-14T10:06:11;96664.66;;;13.56;65.61
141;BME280;65;48.778;9.160;2023-03-14T10:08:57;96660.56;;;13.62;65.03
141;BME280;65;48.778;9.160;2023-03-14T10:11:43;96654.00;;;13.03;66.69
141;BME280;65;48.778;9.160;2023-03-14T10:14:37;96648.84;;;13.02;71.22
141;BME280;65;48.778;9.160;2023-03-14T10:17:29;96640.81;;;13.11;68.48
141;BME280;65;48.778;9.160;2023-03-14T10:20:35;96645.50;;;13.45;64.62
141;BME280;65;48.778;9.160;2023-03-14T10:23:27;96642.03;;;13.70;66.09
141;BME280;65;48.778;9.160;2023-03-14T10:26:18;96645.66;;;14.13;61.67
141;BME280;65;48.778;9.160;2023-03-14T10:29:10;96636.63;;;14.32;64.06
141;BME280;65;48.778;9.160;2023-03-14T10:32:03;96647.50;;;14.12;61.76
141;BME280;65;48.778;9.160;2023-03-14T10:38:01;96645.47;;;14.06;61.56
141;BME280;65;48.778;9.160;2023-03-14T10:40:48;96647.91;;;14.25;60.49
141;BME280;65;48.778;9.160;2023-03-14T10:43:35;96651.59;;;14.33;59.78
141;BME280;65;48.778;9.160;2023-03-14T10:46:23;96641.81;;;14.59;57.94
141;BME280;65;48.778;9.160;2023-03-14T10:49:29;96650.31;;;15.21;57.70
141;BME280;65;48.778;9.160;2023-03-14T10:52:22;96643.94;;;14.98;58.05
141;BME280;65;48.778;9.160;2023-03-14T10:55:11;96652.22;;;14.86;57.90
141;BME280;65;48.778;9.160;2023-03-14T10:57:57;96656.72;;;14.26;60.26
141;BME280;65;48.778;9.160;2023-03-14T11:00:44;96656.00;;;13.90;63.07
141;BME280;65;48.778;9.160;2023-03-14T11:03:33;96677.94;;;13.56;63.31
141;BME280;65;48.778;9.160;2023-03-14T11:06:29;96674.06;;;13.33;68.70
141;BME280;65;48.778;9.160;2023-03-14T11:09:51;96666.28;;;13.04;73.30
141;BME280;65;48.778;9.160;2023-03-14T11:13:04;96681.47;;;12.84;71.59
141;BME280;65;48.778;9.160;2023-03-14T11:16:16;96692.06;;;12.84;71.72
141;BME280;65;48.778;9.160;2023-03-14T11:28:38;96690.94;;;11.35;85.44
141;BME280;65;48.778;9.160;2023-03-14T11:31:26;96705.84;;;11.27;88.09
141;BME280;65;48.778;9.160;2023-03-14T11:37:33;96704.97;;;11.07;87.58
141;BME280;65;48.778;9.160;2023-03-14T11:40:23;96704.88;;;11.47;88.73
141;BME280;65;48.778;9.160;2023-03-14T11:53:17;96726.06;;;11.66;88.81
141;BME280;65;48.778;9.160;2023-03-14T11:56:13;96729.66;;;11.46;86.44
141;BME280;65;48.778;9.160;2023-03-14T11:59:38;96739.53;;;11.44;92.28
141;BME280;65;48.778;9.160;2023-03-14T12:08:37;96753.84;;;12.48;85.94
141;BME280;65;48.778;9.160;2023-03-14T12:12:04;96753.38;;;12.06;84.11
141;BME280;65;48.778;9.160;2023-03-14T12:14:57;96774.53;;;12.34;83.53
141;BME280;65;48.778;9.160;2023-03-14T12:17:43;96778.19;;;12.24;83.46
141;BME280;65;48.778;9.160;2023-03-14T12:20:31;96791.97;;;12.08;86.42
141;BME280;65;48.778;9.160;2023-03-14T12:23:22;96808.25;;;12.52;88.44
141;BME280;65;48.778;9.160;2023-03-14T12:34:46;96858.22;;;13.68;64.07
141;BME280;65;48.778;9.160;2023-03-14T12:37:45;96885.34;;;12.78;67.80
141;BME280;65;48.778;9.160;2023-03-14T12:40:35;96888.28;;;13.96;58.03
141;BME280;65;48.778;9.160;2023-03-14T12:43:30;96893.97;;;14.01;58.03
141;BME280;65;48.778;9.160;2023-03-14T12:49:08;96903.97;;;15.73;48.22
141;BME280;65;48.778;9.160;2023-03-14T12:51:59;96909.19;;;15.83;45.18
141;BME280;65;48.778;9.160;2023-03-14T12:54:57;96928.97;;;15.55;46.04
141;BME280;65;48.778;9.160;2023-03-14T12:58:06;96943.22;;;15.63;45.74
141;BME280;65;48.778;9.160;2023-03-14T13:00:59;96946.19;;;15.60;43.30
141;BME280;65;48.778;9.160;2023-03-14T13:03:57;96961.66;;;15.13;45.62
141;BME280;65;48.778;9.160;2023-03-14T13:09:52;96970.31;;;13.99;46.46
141;BME280;65;48.778;9.160;2023-03-14T13:15:39;97011.19;;;14.15;47.58
141;BME280;65;48.778;9.160;2023-03-14T13:18:36;97025.75;;;13.74;46.45
141;BME280;65;48.778;9.160;2023-03-14T13:21:24;97026.16;;;13.04;47.41
141;BME280;65;48.778;9.160;2023-03-14T13:24:36;97029.47;;;12.48;47.29
141;BME280;65;48.778;9.160;2023-03-14T13:27:22;97036.34;;;11.80;49.29
141;BME280;65;48.778;9.160;2023-03-14T13:33:04;97072.34;;;12.22;48.88
141;BME280;65;48.778;9.160;2023-03-14T13:38:42;97096.56;;;11.46;48.38
141;BME280;65;48.778;9.160;2023-03-14T13:41:28;97118.41;;;10.95;49.94
141;BME280;65;48.778;9.160;2023-03-14T13:44:17;97109.13;;;11.12;49.02
141;BME280;65;48.778;9.160;2023-03-14T13:47:11;97108.69;;;11.48;49.39
141;BME280;65;48.778;9.160;2023-03-14T13:49:58;97124.09;;;11.22;49.14
141;BME280;65;48.778;9.160;2023-03-14T13:52:44;97122.97;;;11.04;49.26
141;BME280;65;48.778;9.160;2023-03-14T13:55:31;97173.88;;;10.63;49.05
141;BME280;65;48.778;9.160;2023-03-14T13:58:25;97163.41;;;10.72;47.75
141;BME280;65;48.778;9.160;2023-03-14T14:01:32;97161.78;;;10.49;47.65
141;BME280;65;48.778;9.160;2023-03-14T14:04:21;97183.84;;;10.37;51.26
141;BME280;65;48.778;9.160;2023-03-14T14:07:15;97187.78;;;10.76;47.49
141;BME280;65;48.778;9.160;2023-03-14T14:10:04;97193.06;;;10.87;47.11
141;BME280;65;48.778;9.160;2023-03-14T14:12:59;97208.22;;;10.29;48.00
141;BME280;65;48.778;9.160;2023-03-14T14:15:49;97217.91;;;10.18;48.24
141;BME280;65;48.778;9.160;2023-03-14T14:18:37;97240.19;;;9.91;46.98
141;BME280;65;48.778;9.160;2023-03-14T14:21:24;97238.25;;;9.93;46.58
141;BME280;65;48.778;9.160;2023-03-14T14:24:14;97236.47;;;10.05;45.28
141;BME280;65;48.778;9.160;2023-03-14T14:27:08;97244.88;;;9.99;45.38
141;BME280;65;48.778;9.160;2023-03-14T14:30:00;97264.66;;;9.69;48.23
141;BME280;65;48.778;9.160;2023-03-14T14:32:49;97260.03;;;10.19;45.24
141;BME280;65;48.778;9.160;2023-03-14T14:35:35;97265.41;;;10.06;46.51
141;BME280;65;48.778;9.160;2023-03-14T14:38:21;97269.72;;;10.07;45.39
141;BME280;65;48.778;9.160;2023-03-14T14:41:11;97297.34;;;10.14;45.66
141;BME280;65;48.778;9.160;2023-03-14T14:43:58;97299.03;;;10.15;47.04
141;BME280;65;48.778;9.160;2023-03-14T14:46:45;97310.31;;;9.59;47.35
141;BME280;65;48.778;9.160;2023-03-14T14:49:32;97329.34;;;9.51;48.06
141;BME280;65;48.778;9.160;2023-03-14T14:52:20;97310.44;;;9.57;47.21
141;BME280;65;48.778;9.160;2023-03-14T14:55:18;97317.38;;;9.58;46.57
141;BME280;65;48.778;9.160;2023-03-14T14:58:18;97304.31;;;9.57;46.59
141;BME280;65;48.778;9.160;2023-03-14T15:01:14;97341.13;;;9.58;48.91
141;BME280;65;48.778;9.160;2023-03-14T15:04:00;97326.66;;;9.64;46.99
141;BME280;65;48.778;9.160;2023-03-14T15:06:49;97327.38;;;9.66;46.85
141;BME280;65;48.778;9.160;2023-03-14T15:09:35;97316.81;;;9.66;47.58
141;BME280;65;48.778;9.160;2023-03-14T15:12:21;97329.22;;;10.00;47.76
141;BME280;65;48.778;9.160;2023-03-14T15:15:11;97333.41;;;10.27;46.78
141;BME280;65;48.778;9.160;2023-03-14T15:17:57;97337.44;;;10.43;46.39
141;BME280;65;48.778;9.160;2023-03-14T15:20:44;97324.47;;;11.41;44.19
141;BME280;65;48.778;9.160;2023-03-14T15:23:30;97333.50;;;11.93;43.25
141;BME280;65;48.778;9.160;2023-03-14T15:26:19;97338.56;;;11.96;42.16
141;BME280;65;48.778;9.160;2023-03-14T15:29:05;97330.50;;;10.76;45.12
141;BME280;65;48.778;9.160;2023-03-14T15:31:53;97338.78;;;9.90;49.06
141;BME280;65;48.778;9.160;2023-03-14T15:34:39;97341.63;;;9.63;49.88
141;BME280;65;48.778;9.160;2023-03-14T15:37:25;97345.44;;;9.59;48.70
141;BME280;65;48.778;9.160;2023-03-14T15:40:12;97344.22;;;9.52;47.90
141;BME280;65;48.778;9.160;2023-03-14T15:42:59;97342.69;;;9.37;48.95
141;BME280;65;48.778;9.160;2023-03-14T15:45:45;97352.94;;;9.29;49.20
141;BME280;65;48.778;9.160;2023-03-14T15:48:31;97353.78;;;9.29;49.61
141;BME280;65;48.778;9.160;2023-03-14T15:51:18;97353.97;;;9.39;49.17
141;BME280;65;48.778;9.160;2023-03-14T15:54:04;97362.56;;;9.54;49.47
141;BME280;65;48.778;9.160;2023-03-14T15:56:50;97371.25;;;9.43;49.78
141;BME280;65;48.778;9.160;2023-03-14T15:59:37;97379.91;;;9.45;49.58
141;BME280;65;48.778;9.160;2023-03-14T16:02:23;97378.97;;;9.33;50.08
141;BME280;65;48.778;9.160;2023-03-14T16:05:09;97385.22;;;9.07;50.91
141;BME280;65;48.778;9.160;2023-03-14T16:07:55;97383.97;;;9.00;50.88
141;BME280;65;48.778;9.160;2023-03-14T16:10:41;97391.97;;;8.98;51.10
141;BME280;65;48.778;9.160;2023-03-14T16:13:27;97402.00;;;8.93;51.87
141;BME280;65;48.778;9.160;2023-03-14T16:16:13;97402.00;;;8.93;50.50
141;BME280;65;48.778;9.160;2023-03-14T16:18:59;97398.72;;;9.02;52.01
141;BME280;65;48.778;9.160;2023-03-14T16:21:45;97414.97;;;8.96;51.44
141;BME280;65;48.778;9.160;2023-03-14T16:24:31;97408.03;;;8.82;52.61
141;BME280;65;48.778;9.160;2023-03-14T16:27:17;97407.81;;;8.85;53.64
141;BME280;65;48.778;9.160;2023-03-14T16:30:03;97407.38;;;8.79;53.21
141;BME280;65;48.778;9.160;2023-03-14T16:32:49;97413.66;;;8.64;54.10
141;BME280;65;48.778;9.160;2023-03-14T16:35:36;97424.31;;;8.62;55.25
141;BME280;65;48.778;9.160;2023-03-14T16:38:23;97409.44;;;8.61;53.27
141;BME280;65;48.778;9.160;2023-03-14T16:41:15;97428.53;;;8.65;54.50
141;BME280;65;48.778;9.160;2023-03-14T16:44:01;97428.00;;;8.60;53.28
141;BME280;65;48.778;9.160;2023-03-14T16:46:47;97429.09;;;8.70;54.86
141;BME280;65;48.778;9.160;2023-03-14T16:49:33;97427.19;;;8.72;53.31
141;BME280;65;48.778;9.160;2023-03-14T16:52:18;97427.09;;;8.73;53.85
141;BME280;65;48.778;9.160;2023-03-14T16:55:04;97444.69;;;8.73;55.10
141;BME280;65;48.778;9.160;2023-03-14T16:57:52;97445.75;;;8.70;54.89
141;BME280;65;48.778;9.160;2023-03-14T17:00:38;97455.75;;;8.78;53.08
141;BME280;65;48.778;9.160;2023-03-14T17:03:24;97464.28;;;8.81;53.24
141;BME280;65;48.778;9.160;2023-03-14T17:06:26;97461.75;;;8.80;53.73
141;BME280;65;48.778;9.160;2023-03-14T17:09:12;97460.50;;;8.85;54.57